Time;durP1;ratioP1;P1;durP2;ratioP2;P2;SDS_P1;SDS_P2;PMS_P1;PMS_P2;Temp;Humidity;BMP_temperature;BMP_pressure;BME280_temperature;BME280_humidity;BME280_pressure;Samples;Min_cycle;Max_cycle;Signal;HPM_P1;HPM_P2
2021/08/18 00:01:20;;;;;;;13.90;11.33;;;;;;;22.56;100.00;100867.53;5033828;28;20272;-75
2021/08/18 00:03:46;;;;;;;14.10;11.93;;;;;;;22.58;100.00;100872.72;5033783;28;20650;-74
2021/08/18 00:06:12;;;;;;;16.17;11.90;;;;;;;22.51;100.00;100869.91;5033554;28;20416;-76
2021/08/18 00:08:40;;;;;;;20.07;13.27;;;;;;;22.48;100.00;100872.94;5033410;28;20172;-74
2021/08/18 00:11:06;;;;;;;16.53;13.10;;;;;;;22.41;100.00;100875.50;5033119;28;20773;-75
2021/08/18 00:13:31;;;;;;;15.63;13.43;;;;;;;22.40;100.00;100871.16;5033307;28;20400;-75
2021/08/18 00:15:57;;;;;;;16.80;13.00;;;;;;;22.35;100.00;100870.00;5033707;28;20248;-74
2021/08/18 00:18:22;;;;;;;16.80;14.23;;;;;;;22.30;100.00;100875.09;5033675;28;20511;-74
2021/08/18 00:20:48;;;;;;;19.20;13.30;;;;;;;22.35;100.00;100875.38;5028969;28;20721;-75
2021/08/18 00:23:14;;;;;;;25.97;14.90;;;;;;;22.27;100.00;100875.41;5027498;28;20621;-76
2021/08/18 00:25:40;;;;;;;23.23;15.90;;;;;;;22.15;100.00;100877.66;5023801;28;20176;-75
2021/08/18 00:28:05;;;;;;;18.20;15.70;;;;;;;22.04;100.00;100886.03;5032932;28;20182;-75
2021/08/18 00:30:31;;;;;;;22.53;15.37;;;;;;;21.98;100.00;100887.53;5033197;28;20165;-76
2021/08/18 00:32:56;;;;;;;16.37;14.60;;;;;;;21.98;100.00;100882.19;5033007;28;20705;-74
2021/08/18 00:35:22;;;;;;;23.40;16.00;;;;;;;21.98;100.00;100887.53;5032929;28;20176;-77
2021/08/18 00:37:48;;;;;;;17.67;14.80;;;;;;;21.97;100.00;100885.88;5032848;28;20219;-74
2021/08/18 00:40:14;;;;;;;15.07;13.47;;;;;;;22.01;100.00;100889.06;5031750;28;20185;-76
2021/08/18 00:42:44;;;;;;;17.43;14.10;;;;;;;22.01;100.00;100889.06;5032687;28;20209;-77
2021/08/18 00:45:11;;;;;;;16.90;14.70;;;;;;;22.00;100.00;100887.41;5032621;28;20437;-76
2021/08/18 00:47:41;;;;;;;18.73;14.77;;;;;;;21.98;100.00;100889.38;5032886;28;20396;-76
2021/08/18 00:50:09;;;;;;;15.97;14.07;;;;;;;22.02;100.00;100888.06;5032842;28;20405;-76
2021/08/18 00:52:35;;;;;;;15.43;13.40;;;;;;;21.98;100.00;100881.38;5033074;28;20397;-77
2021/08/18 00:55:01;;;;;;;18.70;16.17;;;;;;;21.92;100.00;100884.75;5032867;28;20413;-76
2021/08/18 00:57:26;;;;;;;18.33;15.10;;;;;;;21.96;100.00;100886.06;5032375;28;20467;-75
2021/08/18 00:59:52;;;;;;;23.60;18.10;;;;;;;21.93;100.00;100886.41;5032795;28;20166;-75
2021/08/18 01:02:18;;;;;;;24.80;20.50;;;;;;;21.93;100.00;100887.25;5032714;28;20188;-76
2021/08/18 01:04:43;;;;;;;26.70;20.03;;;;;;;21.87;100.00;100886.09;5032857;28;20646;-76
2021/08/18 01:07:09;;;;;;;27.63;22.00;;;;;;;21.85;100.00;100881.94;5032500;28;20487;-76
2021/08/18 01:09:35;;;;;;;26.10;21.93;;;;;;;21.83;100.00;100895.44;5032886;28;20642;-76
2021/08/18 01:12:00;;;;;;;28.73;23.33;;;;;;;21.88;100.00;100895.78;5020117;28;20178;-77
2021/08/18 01:14:26;;;;;;;26.00;20.67;;;;;;;21.87;100.00;100893.28;5032015;28;20202;-76
2021/08/18 01:16:51;;;;;;;24.57;21.50;;;;;;;21.83;100.00;100887.44;5032833;28;20265;-76
2021/08/18 01:19:19;;;;;;;23.67;20.80;;;;;;;21.79;100.00;100891.47;5032604;28;20216;-76
2021/08/18 01:21:46;;;;;;;24.60;20.00;;;;;;;21.83;100.00;100890.09;5032712;28;20618;-75
2021/08/18 01:24:13;;;;;;;24.40;17.97;;;;;;;21.85;100.00;100890.78;5032361;28;20831;-76
2021/08/18 01:26:40;;;;;;;20.30;17.07;;;;;;;21.88;100.00;100898.47;5032580;28;20876;-75
2021/08/18 01:29:06;;;;;;;19.10;16.93;;;;;;;21.86;100.00;100900.47;5032516;28;21109;-75
2021/08/18 01:31:31;;;;;;;19.80;16.63;;;;;;;21.88;100.00;100898.47;5032217;28;20451;-75
2021/08/18 01:34:02;;;;;;;19.83;15.90;;;;;;;21.93;100.00;100894.44;5032423;28;20932;-77
2021/08/18 01:36:29;;;;;;;18.00;14.87;;;;;;;21.97;100.00;100880.53;5032529;28;20176;-75
2021/08/18 01:39:03;;;;;;;18.17;15.07;;;;;;;21.92;100.00;100876.72;5032271;28;20447;-77
2021/08/18 01:41:29;;;;;;;20.23;16.33;;;;;;;21.88;100.00;100874.38;5032233;28;20451;-74
2021/08/18 01:43:55;;;;;;;17.00;13.33;;;;;;;21.88;100.00;100882.41;5032246;28;20413;-74
2021/08/18 01:46:20;;;;;;;18.70;14.30;;;;;;;21.85;100.00;100876.59;5020199;28;20173;-75
2021/08/18 01:48:45;;;;;;;18.77;15.00;;;;;;;21.86;100.00;100879.06;5029307;28;20169;-75
2021/08/18 01:51:11;;;;;;;17.60;13.73;;;;;;;21.77;100.00;100874.75;5031370;28;20648;-75
2021/08/18 01:53:44;;;;;;;17.33;14.50;;;;;;;21.80;100.00;100887.78;5031410;28;20180;-76
2021/08/18 01:56:11;;;;;;;21.00;13.70;;;;;;;21.74;100.00;100891.13;5031506;28;20256;-76
2021/08/18 01:58:38;;;;;;;15.77;13.03;;;;;;;21.82;100.00;100883.09;5031671;28;20410;-75
2021/08/18 02:01:06;;;;;;;16.80;13.13;;;;;;;21.80;100.00;100885.09;5031634;28;20432;-74
2021/08/18 02:03:31;;;;;;;16.30;13.50;;;;;;;21.89;100.00;100889.41;5031288;28;20400;-75
2021/08/18 02:05:57;;;;;;;18.70;14.53;;;;;;;21.82;100.00;100879.59;5031640;28;20408;-75
2021/08/18 02:08:22;;;;;;;15.10;13.23;;;;;;;21.81;100.00;100881.41;5031268;28;20205;-74
2021/08/18 02:10:48;;;;;;;18.40;13.80;;;;;;;21.75;100.00;100874.09;5031169;28;20169;-75
2021/08/18 02:13:14;;;;;;;16.23;13.70;;;;;;;21.77;100.00;100872.09;5030967;28;20173;-75
2021/08/18 02:15:40;;;;;;;21.87;15.27;;;;;;;21.71;100.00;100867.41;5031138;28;20166;-75
2021/08/18 02:18:07;;;;;;;20.03;15.37;;;;;;;21.69;100.00;100872.13;5031496;28;20420;-74
2021/08/18 02:20:36;;;;;;;19.33;15.00;;;;;;;21.63;100.00;100877.31;5031185;28;20457;-74
2021/08/18 02:23:01;;;;;;;16.87;14.30;;;;;;;21.58;100.00;100878.66;5031139;28;20455;-78
2021/08/18 02:25:27;;;;;;;17.67;15.40;;;;;;;21.65;100.00;100876.13;5030923;28;20807;-76
2021/08/18 02:27:53;;;;;;;17.43;15.10;;;;;;;21.70;100.00;100873.78;5031840;28;20307;-76
2021/08/18 02:30:26;;;;;;;18.13;15.50;;;;;;;21.67;100.00;100874.09;5017462;28;20219;-75
2021/08/18 02:32:52;;;;;;;18.90;15.47;;;;;;;21.59;100.00;100874.97;5031058;28;20209;-76
2021/08/18 02:35:18;;;;;;;17.77;14.97;;;;;;;21.54;100.00;100887.19;5031342;28;20475;-76
2021/08/18 02:37:48;;;;;;;23.60;20.90;;;;;;;21.52;100.00;100887.34;5031087;28;20408;-76
2021/08/18 02:40:18;;;;;;;23.33;17.60;;;;;;;21.60;100.00;100887.31;5031272;28;20420;-75
2021/08/18 02:42:44;;;;;;;22.10;17.10;;;;;;;21.50;100.00;100888.53;5031076;28;20790;-76
2021/08/18 02:45:11;;;;;;;21.53;16.50;;;;;;;21.46;100.00;100900.56;5030965;28;20758;-75
2021/08/18 02:47:37;;;;;;;24.83;17.00;;;;;;;21.45;100.00;100898.88;5031050;28;20400;-76
2021/08/18 02:50:05;;;;;;;20.70;15.13;;;;;;;21.36;100.00;100897.22;5030979;28;20779;-75
2021/08/18 02:52:31;;;;;;;17.70;14.57;;;;;;;21.36;100.00;100889.22;5030873;28;20413;-76
2021/08/18 02:54:56;;;;;;;21.00;14.67;;;;;;;21.32;100.00;100891.41;5031109;28;20404;-75
2021/08/18 02:57:21;;;;;;;18.50;14.63;;;;;;;21.18;100.00;100887.53;5030880;28;20201;-75
2021/08/18 02:59:47;;;;;;;21.20;15.60;;;;;;;21.11;100.00;100883.03;5030705;28;20165;-76
2021/08/18 03:02:13;;;;;;;22.43;16.57;;;;;;;21.22;100.00;100886.19;5016964;28;20198;-75
2021/08/18 03:04:38;;;;;;;22.83;16.83;;;;;;;21.26;100.00;100882.19;5030950;28;20788;-76
2021/08/18 03:07:04;;;;;;;18.30;15.27;;;;;;;21.23;100.00;100882.50;5030856;28;20223;-76
2021/08/18 03:09:30;;;;;;;20.53;15.10;;;;;;;21.39;100.00;100880.88;5030781;28;20642;-76
2021/08/18 03:11:55;;;;;;;22.73;15.00;;;;;;;21.44;100.00;100883.84;5030447;28;20665;-77
2021/08/18 03:14:21;;;;;;;21.90;15.50;;;;;;;21.43;100.00;100882.19;5030494;28;20181;-75
2021/08/18 03:16:48;;;;;;;24.20;15.90;;;;;;;21.42;100.00;100889.38;5030946;28;20273;-75
2021/08/18 03:19:14;;;;;;;18.03;14.50;;;;;;;21.49;100.00;100894.88;5030376;28;20272;-75
2021/08/18 03:21:39;;;;;;;18.37;14.13;;;;;;;21.51;100.00;100907.06;5030485;28;20440;-75
2021/08/18 03:24:05;;;;;;;21.53;15.50;;;;;;;21.44;100.00;100900.72;5031179;28;20427;-74
2021/08/18 03:26:31;;;;;;;19.00;16.23;;;;;;;21.50;100.00;100901.91;5034885;28;20204;-75
2021/08/18 03:28:57;;;;;;;23.20;15.63;;;;;;;21.48;100.00;100895.88;5034257;28;20419;-75
2021/08/18 03:31:22;;;;;;;22.93;17.33;;;;;;;21.48;100.00;100901.25;5034258;28;20672;-75
2021/08/18 03:33:47;;;;;;;21.23;17.63;;;;;;;21.50;100.00;100896.56;5034075;28;20170;-74
2021/08/18 03:36:13;;;;;;;20.03;16.50;;;;;;;21.43;100.00;100899.06;5034058;28;20564;-73
2021/08/18 03:38:38;;;;;;;21.80;15.87;;;;;;;21.41;100.00;100892.22;5033967;28;20174;-75
2021/08/18 03:41:04;;;;;;;20.03;15.50;;;;;;;21.45;100.00;100891.69;5033865;28;20194;-76
2021/08/18 03:43:29;;;;;;;22.50;17.20;;;;;;;21.38;100.00;100896.06;5033913;28;20169;-75
2021/08/18 03:45:55;;;;;;;25.17;16.90;;;;;;;21.40;100.00;100893.22;5034133;28;20216;-76
2021/08/18 03:48:21;;;;;;;20.83;16.30;;;;;;;21.54;100.00;100892.53;5033888;28;20173;-75
2021/08/18 03:50:46;;;;;;;27.00;15.30;;;;;;;21.57;100.00;100889.53;5033667;28;20276;-76
2021/08/18 03:53:11;;;;;;;20.87;16.50;;;;;;;21.60;100.00;100891.84;5034121;28;20260;-75
2021/08/18 03:55:37;;;;;;;23.53;15.67;;;;;;;21.56;100.00;100894.03;5033994;28;20173;-75
2021/08/18 03:58:03;;;;;;;19.53;15.67;;;;;;;21.67;100.00;100895.50;5033607;28;20175;-75
2021/08/18 04:00:28;;;;;;;17.57;15.20;;;;;;;21.68;100.00;100886.47;5034019;28;20169;-76
2021/08/18 04:02:54;;;;;;;60.73;20.47;;;;;;;21.66;100.00;100893.84;5033687;28;20569;-76
2021/08/18 04:05:19;;;;;;;22.37;17.57;;;;;;;21.68;100.00;100893.66;5033806;28;20178;-75
2021/08/18 04:07:45;;;;;;;26.53;17.60;;;;;;;21.58;100.00;100888.50;5034124;28;20745;-76
2021/08/18 04:10:11;;;;;;;26.83;17.80;;;;;;;21.62;100.00;100887.19;5033692;28;20176;-75
2021/08/18 04:12:48;;;;;;;22.40;19.87;;;;;;;21.63;100.00;100888.00;5033806;28;20178;-76
2021/08/18 04:15:13;;;;;;;21.83;18.80;;;;;;;21.65;100.00;100891.34;5033583;28;20408;-75
2021/08/18 04:17:39;;;;;;;23.53;18.57;;;;;;;21.61;100.00;100904.19;5033705;28;20413;-76
2021/08/18 04:20:05;;;;;;;22.20;17.70;;;;;;;21.68;100.00;100899.84;5033009;28;20653;-75
2021/08/18 04:22:30;;;;;;;25.50;19.27;;;;;;;21.81;100.00;100894.81;5033418;28;20189;-75
2021/08/18 04:24:56;;;;;;;20.13;17.93;;;;;;;21.85;100.00;100900.66;5033046;28;20444;-76
2021/08/18 04:27:21;;;;;;;26.60;19.07;;;;;;;21.97;100.00;100901.09;5033147;28;20173;-75
2021/08/18 04:29:47;;;;;;;24.70;17.77;;;;;;;22.03;100.00;100901.25;5033188;28;20208;-74
2021/08/18 04:32:12;;;;;;;31.73;17.97;;;;;;;22.14;100.00;100897.38;5033085;28;20173;-75
2021/08/18 04:34:38;;;;;;;26.20;17.33;;;;;;;22.72;100.00;100904.09;5032549;28;20181;-75
2021/08/18 04:37:03;;;;;;;21.53;17.47;;;;;;;23.53;100.00;100884.69;5032789;28;20626;-74
2021/08/18 04:39:29;;;;;;;28.37;17.00;;;;;;;23.62;100.00;100874.72;5032961;28;20212;-75
2021/08/18 04:41:55;;;;;;;22.30;16.57;;;;;;;23.45;100.00;100887.47;5031380;28;20909;-75
2021/08/18 04:44:20;;;;;;;21.43;16.13;;;;;;;23.26;100.00;100909.41;5032667;28;20235;-75
2021/08/18 04:46:46;;;;;;;21.57;14.80;;;;;;;23.00;100.00;100906.28;5032788;28;20172;-74
2021/08/18 04:49:11;;;;;;;27.27;17.03;;;;;;;23.04;100.00;100915.63;5032667;28;20745;-74
2021/08/18 04:51:36;;;;;;;27.47;15.70;;;;;;;22.88;100.00;100920.09;5032861;28;20190;-75
2021/08/18 04:54:02;;;;;;;17.77;15.13;;;;;;;22.91;100.00;100921.59;5032572;28;20701;-75
2021/08/18 04:56:27;;;;;;;16.63;14.47;;;;;;;22.85;100.00;100924.97;5032656;28;20229;-74
2021/08/18 04:58:53;;;;;;;19.37;14.00;;;;;;;22.74;100.00;100930.72;5032475;28;20161;-76
2021/08/18 05:01:18;;;;;;;22.60;15.00;;;;;;;22.77;100.00;100928.53;5032569;28;20276;-75
2021/08/18 05:03:44;;;;;;;21.73;16.17;;;;;;;22.81;100.00;100937.03;5032674;28;20552;-75
2021/08/18 05:06:09;;;;;;;22.00;15.63;;;;;;;22.91;100.00;100935.84;5032319;28;20161;-75
2021/08/18 05:08:35;;;;;;;18.70;15.20;;;;;;;22.90;100.00;100938.72;5032235;28;20165;-76
2021/08/18 05:11:01;;;;;;;18.07;15.57;;;;;;;22.89;100.00;100939.69;5031957;28;20177;-76
2021/08/18 05:13:26;;;;;;;19.03;14.60;;;;;;;22.84;100.00;100939.38;5032189;28;20530;-74
2021/08/18 05:15:51;;;;;;;23.40;15.50;;;;;;;22.93;100.00;100936.50;5032081;28;20205;-75
2021/08/18 05:18:17;;;;;;;23.33;17.10;;;;;;;22.97;100.00;100931.59;5031805;28;20213;-77
2021/08/18 05:20:42;;;;;;;18.03;14.00;;;;;;;23.02;100.00;100931.06;5031716;28;20637;-76
2021/08/18 05:23:08;;;;;;;20.47;15.40;;;;;;;23.18;100.00;100931.78;5031562;28;20278;-76
2021/08/18 05:25:33;;;;;;;24.63;16.60;;;;;;;23.41;100.00;100929.06;5032157;28;20173;-76
2021/08/18 05:28:03;;;;;;;18.10;14.97;;;;;;;23.78;100.00;100928.22;5027492;28;20175;-75
2021/08/18 05:30:29;;;;;;;17.57;15.13;;;;;;;24.11;100.00;100922.50;5031465;28;20219;-74
2021/08/18 05:32:55;;;;;;;18.87;14.27;;;;;;;24.33;100.00;100928.78;5031492;28;20439;-75
2021/08/18 05:35:21;;;;;;;19.80;16.70;;;;;;;24.35;100.00;100930.28;5031587;28;20503;-75
2021/08/18 05:37:46;;;;;;;19.53;15.40;;;;;;;24.46;100.00;100933.50;5031746;28;20166;-74
2021/08/18 05:40:13;;;;;;;20.73;16.50;;;;;;;24.60;100.00;100925.41;5031672;28;20181;-74
2021/08/18 05:42:38;;;;;;;19.70;15.70;;;;;;;24.70;100.00;100921.56;5031915;28;20208;-76
2021/08/18 05:45:05;;;;;;;19.77;15.20;;;;;;;24.65;100.00;100929.38;5031535;28;20799;-76
2021/08/18 05:47:31;;;;;;;20.60;16.60;;;;;;;24.67;100.00;100927.31;5030676;28;20538;-74
2021/08/18 05:49:56;;;;;;;22.80;16.27;;;;;;;24.73;100.00;100915.81;5031225;28;20919;-76
2021/08/18 05:52:22;;;;;;;22.43;17.47;;;;;;;24.57;100.00;100919.59;5031544;28;20235;-76
2021/08/18 05:54:47;;;;;;;20.57;17.40;;;;;;;24.29;100.00;100919.41;5031015;28;20170;-76
2021/08/18 05:57:13;;;;;;;28.40;16.20;;;;;;;24.13;100.00;100922.31;5031230;28;20252;-76
2021/08/18 05:59:38;;;;;;;25.17;16.77;;;;;;;24.03;100.00;100926.13;5031600;28;20181;-76
2021/08/18 06:02:04;;;;;;;24.10;16.37;;;;;;;24.10;100.00;100928.88;5031272;28;20189;-75
2021/08/18 06:04:29;;;;;;;24.00;16.93;;;;;;;24.01;100.00;100935.34;5031105;28;20192;-75
2021/08/18 06:06:55;;;;;;;19.40;16.27;;;;;;;23.98;100.00;100936.56;5031392;28;20657;-77
2021/08/18 06:09:21;;;;;;;29.00;19.47;;;;;;;24.14;100.00;100940.09;5031392;28;20219;-74
2021/08/18 06:11:46;;;;;;;28.53;21.20;;;;;;;24.26;100.00;100931.38;5030868;28;20212;-75
2021/08/18 06:14:12;;;;;;;31.67;23.27;;;;;;;24.54;100.00;100925.31;5030920;28;20166;-74
2021/08/18 06:16:37;;;;;;;26.77;19.13;;;;;;;24.70;100.00;100914.31;5031076;28;20173;-76
2021/08/18 06:19:03;;;;;;;21.07;14.80;;;;;;;24.84;100.00;100918.81;5030750;28;20300;-75
2021/08/18 06:21:28;;;;;;;17.60;13.50;;;;;;;24.97;100.00;100918.13;5031103;28;20190;-76
2021/08/18 06:23:58;;;;;;;19.40;11.87;;;;;;;25.05;100.00;100915.34;5031188;28;20178;-76
2021/08/18 06:26:24;;;;;;;16.47;11.87;;;;;;;25.20;100.00;100914.44;5030908;28;20154;-75
2021/08/18 06:28:50;;;;;;;13.87;11.30;;;;;;;25.27;100.00;100921.53;5031354;28;20767;-75
2021/08/18 06:31:17;;;;;;;17.40;12.73;;;;;;;25.35;100.00;100918.69;5030963;28;20419;-75
2021/08/18 06:33:42;;;;;;;19.50;9.37;;;;;;;25.50;100.00;100929.38;5029294;28;20561;-73
2021/08/18 06:36:08;;;;;;;11.80;8.53;;;;;;;25.59;100.00;100921.97;5030541;28;20912;-75
2021/08/18 06:38:33;;;;;;;12.23;8.77;;;;;;;25.61;100.00;100922.59;5030339;28;20197;-76
2021/08/18 06:40:59;;;;;;;10.67;8.53;;;;;;;25.83;100.00;100926.09;5026075;28;20618;-75
2021/08/18 06:43:24;;;;;;;9.30;7.33;;;;;;;26.11;100.00;100918.81;5026292;28;20569;-76
2021/08/18 06:45:50;;;;;;;11.90;8.30;;;;;;;26.33;100.00;100916.00;5030454;28;20253;-76
2021/08/18 06:48:15;;;;;;;17.30;8.47;;;;;;;26.58;100.00;100914.44;5030311;28;20231;-75
2021/08/18 06:50:40;;;;;;;12.70;8.70;;;;;;;26.78;100.00;100909.94;5030533;28;20194;-76
2021/08/18 06:53:06;;;;;;;13.10;7.97;;;;;;;27.04;100.00;100911.03;5030437;28;20177;-76
2021/08/18 06:55:32;;;;;;;13.37;7.10;;;;;;;27.09;100.00;100914.78;5030759;28;20166;-76
2021/08/18 06:57:58;;;;;;;9.13;7.17;;;;;;;27.17;100.00;100902.97;5029270;28;20260;-76
2021/08/18 07:00:24;;;;;;;18.13;8.50;;;;;;;27.17;100.00;100902.97;5030575;28;20474;-76
2021/08/18 07:02:51;;;;;;;12.90;7.60;;;;;;;27.27;100.00;100891.72;5030718;28;20312;-74
2021/08/18 07:05:19;;;;;;;10.20;7.47;;;;;;;27.45;100.00;100893.81;5030606;28;20197;-76
2021/08/18 07:07:45;;;;;;;11.90;9.00;;;;;;;27.50;100.00;100894.00;5030374;28;20469;-77
2021/08/18 07:10:13;;;;;;;15.60;9.10;;;;;;;27.49;100.00;100890.47;5030176;28;20400;-76
2021/08/18 07:12:38;;;;;;;12.30;9.63;;;;;;;27.50;100.00;100889.44;5029648;28;20420;-76
2021/08/18 07:15:06;;;;;;;14.23;9.20;;;;;;;27.43;100.00;100891.31;5030034;28;20466;-77
2021/08/18 07:17:33;;;;;;;12.73;8.20;;;;;;;27.33;100.00;100890.91;5030237;28;20188;-76
2021/08/18 07:20:00;;;;;;;12.47;7.93;;;;;;;27.31;100.00;100893.81;5030050;28;20515;-76
2021/08/18 07:22:25;;;;;;;12.17;8.17;;;;;;;27.37;100.00;100892.16;5030011;28;20455;-77
2021/08/18 07:24:51;;;;;;;9.60;7.10;;;;;;;27.36;100.00;100894.03;5030154;28;20408;-76
2021/08/18 07:27:17;;;;;;;17.90;8.00;;;;;;;27.41;100.00;100901.50;5030230;28;20277;-77
2021/08/18 07:29:42;;;;;;;10.07;7.60;;;;;;;27.43;100.00;100901.28;5030304;28;20173;-76
2021/08/18 07:32:08;;;;;;;8.53;7.73;;;;;;;27.40;100.00;100901.72;5030141;28;20178;-76
2021/08/18 07:34:34;;;;;;;10.33;7.53;;;;;;;27.51;100.00;100907.31;5030012;28;20617;-75
2021/08/18 07:37:00;;;;;;;10.10;6.93;;;;;;;27.56;100.00;100899.38;5030344;28;20667;-77
2021/08/18 07:39:26;;;;;;;9.80;7.37;;;;;;;27.57;100.00;100900.22;5030392;28;20444;-77
2021/08/18 07:41:52;;;;;;;15.73;8.30;;;;;;;27.57;100.00;100898.34;5029578;28;20459;-74
2021/08/18 07:44:17;;;;;;;11.70;9.30;;;;;;;27.67;100.00;100892.56;5030310;28;20256;-78
2021/08/18 07:46:46;;;;;;;15.37;8.97;;;;;;;27.64;100.00;100887.53;5030453;28;20165;-76
2021/08/18 07:49:11;;;;;;;9.30;8.13;;;;;;;27.77;100.00;100886.72;5029792;28;20657;-76
2021/08/18 07:51:38;;;;;;;10.57;8.00;;;;;;;27.73;100.00;100891.69;5029889;28;20436;-76
2021/08/18 07:54:04;;;;;;;12.17;8.57;;;;;;;27.72;100.00;100897.31;5023627;28;20213;-77
2021/08/18 07:56:32;;;;;;;12.30;8.30;;;;;;;27.83;100.00;100899.38;5021125;28;20420;-77
2021/08/18 07:58:58;;;;;;;13.50;7.70;;;;;;;27.81;100.00;100899.59;5029963;28;20170;-76
2021/08/18 08:01:24;;;;;;;11.87;8.90;;;;;;;27.85;100.00;100903.53;5029901;28;20925;-76
2021/08/18 08:03:49;;;;;;;13.90;8.20;;;;;;;27.96;100.00;100899.31;5029908;28;20419;-76
2021/08/18 08:06:15;;;;;;;14.47;10.93;;;;;;;27.97;100.00;100909.13;5029144;28;20253;-76
2021/08/18 08:08:40;;;;;;;19.43;8.53;;;;;;;27.99;100.00;100903.50;5029597;28;20184;-76
2021/08/18 08:11:06;;;;;;;13.33;8.30;;;;;;;27.92;100.00;100907.03;5030320;28;20185;-77
2021/08/18 08:13:31;;;;;;;13.50;8.10;;;;;;;27.86;100.00;100907.06;5033089;28;20555;-78
2021/08/18 08:15:57;;;;;;;11.40;8.07;;;;;;;28.01;100.00;100906.81;5032656;28;20629;-76
2021/08/18 08:18:22;;;;;;;10.90;7.47;;;;;;;28.10;100.00;100903.63;5033377;28;20231;-76
2021/08/18 08:20:47;;;;;;;9.97;7.63;;;;;;;28.15;100.00;100913.81;5032672;28;20685;-77
2021/08/18 08:23:13;;;;;;;9.37;8.00;;;;;;;28.23;100.00;100915.44;5033226;28;20197;-77
2021/08/18 08:25:38;;;;;;;8.50;7.23;;;;;;;28.37;100.00;100904.41;5020110;28;20182;-77
2021/08/18 08:28:05;;;;;;;13.40;9.03;;;;;;;28.42;100.00;100903.75;5032351;28;20178;-78
2021/08/18 08:30:31;;;;;;;11.37;8.53;;;;;;;28.47;100.00;100909.34;5024676;28;20170;-77
2021/08/18 08:32:56;;;;;;;10.47;8.30;;;;;;;28.47;100.00;100896.63;5027962;28;20477;-77
2021/08/18 08:35:22;;;;;;;13.00;9.07;;;;;;;28.51;100.00;100898.94;5033313;28;20254;-76
2021/08/18 08:37:47;;;;;;;9.77;8.07;;;;;;;28.50;100.00;100903.50;5034003;28;20182;-76
2021/08/18 08:40:14;;;;;;;11.00;8.10;;;;;;;28.51;100.00;100898.94;5034108;28;20426;-78
2021/08/18 08:42:41;;;;;;;10.47;7.03;;;;;;;28.63;100.00;100895.31;5033386;28;20256;-76
2021/08/18 08:45:09;;;;;;;10.83;7.93;;;;;;;28.67;100.00;100898.41;5033085;28;20465;-75
2021/08/18 08:47:35;;;;;;;20.67;8.90;;;;;;;28.76;100.00;100891.69;5033806;28;20499;-76
2021/08/18 08:50:06;;;;;;;10.47;7.87;;;;;;;28.70;100.00;100895.25;5032932;28;20411;-76
2021/08/18 08:52:33;;;;;;;11.57;8.10;;;;;;;28.66;100.00;100892.19;5032798;28;20401;-76
2021/08/18 08:54:59;;;;;;;12.63;9.03;;;;;;;28.64;100.00;100888.00;5033000;28;20936;-77
2021/08/18 08:57:24;;;;;;;13.03;8.03;;;;;;;28.55;100.00;100895.56;5032739;28;20506;-76
2021/08/18 08:59:50;;;;;;;10.40;7.93;;;;;;;28.63;100.00;100889.88;5032793;28;20851;-77
2021/08/18 09:02:16;;;;;;;10.00;7.57;;;;;;;28.69;100.00;100880.09;5032191;28;20205;-76
2021/08/18 09:04:44;;;;;;;11.03;7.50;;;;;;;28.75;100.00;100876.50;5031003;28;20181;-76
2021/08/18 09:07:21;;;;;;;16.20;8.20;;;;;;;28.75;100.00;100881.91;5032034;28;20167;-73
2021/08/18 09:09:57;;;;;;;10.30;7.10;;;;;;;28.81;100.00;100882.94;5032055;28;20894;-76
2021/08/18 09:12:38;;;;;;;18.13;7.77;;;;;;;28.84;100.00;100875.19;5032344;28;20851;-77
2021/08/18 09:15:20;;;;;;;12.50;8.20;;;;;;;28.82;100.00;100869.19;5031773;28;20408;-76
2021/08/18 09:17:48;;;;;;;8.20;7.23;;;;;;;28.89;100.00;100869.13;5031416;28;20413;-76
2021/08/18 09:20:29;;;;;;;11.70;7.73;;;;;;;28.96;100.00;100869.94;5031763;28;20464;-78
2021/08/18 09:23:00;;;;;;;10.73;8.80;;;;;;;28.99;100.00;100870.31;5031548;28;20471;-78
2021/08/18 09:25:39;;;;;;;11.73;8.90;;;;;;;29.09;100.00;100868.97;5031723;28;20494;-77
2021/08/18 09:28:04;;;;;;;11.00;9.80;;;;;;;29.13;100.00;100867.50;5031793;28;20397;-76
2021/08/18 09:30:43;;;;;;;12.83;8.17;;;;;;;29.17;100.00;100872.28;5031624;28;20440;-77
2021/08/18 09:33:19;;;;;;;11.87;7.90;;;;;;;29.22;100.00;100860.75;5032180;28;20554;-75
2021/08/18 09:35:54;;;;;;;9.90;7.60;;;;;;;29.22;100.00;100860.75;5032119;28;20412;-76
2021/08/18 09:38:20;;;;;;;27.03;9.03;;;;;;;29.25;100.00;100854.91;5031565;28;20408;-78
2021/08/18 09:40:51;;;;;;;14.27;7.73;;;;;;;29.20;100.00;100857.44;5031720;28;21010;-78
2021/08/18 09:43:24;;;;;;;11.83;8.60;;;;;;;29.30;100.00;100858.59;5029653;28;20554;-75
2021/08/18 09:46:05;;;;;;;11.60;7.73;;;;;;;29.42;100.00;100860.56;5030907;28;20412;-76
2021/08/18 09:48:33;;;;;;;10.00;7.50;;;;;;;29.54;100.00;100862.34;5029974;28;20507;-77
2021/08/18 09:51:24;;;;;;;20.43;18.33;;;;;;;29.47;100.00;100861.56;5018772;28;20463;-78
2021/08/18 09:53:50;;;;;;;13.87;7.73;;;;;;;29.44;100.00;100858.47;5027951;28;20473;-76
2021/08/18 09:56:16;;;;;;;14.13;9.07;;;;;;;29.36;100.00;100856.88;5031337;28;20421;-76
2021/08/18 09:58:47;;;;;;;11.10;8.40;;;;;;;29.46;100.00;100862.59;5031215;28;20703;-74
2021/08/18 10:01:15;;;;;;;8.67;7.77;;;;;;;29.61;100.00;100858.72;5031097;28;20401;-76
2021/08/18 10:03:47;;;;;;;10.07;7.90;;;;;;;29.85;100.00;100857.81;5030682;28;20401;-77
2021/08/18 10:06:13;;;;;;;8.83;7.93;;;;;;;30.17;100.00;100847.66;5031076;28;20884;-76
2021/08/18 10:08:42;;;;;;;15.13;9.87;;;;;;;30.07;100.00;100853.59;5031161;28;20413;-77
2021/08/18 10:11:10;;;;;;;13.93;9.70;;;;;;;30.11;100.00;100851.28;5031136;28;20432;-77
2021/08/18 10:13:36;;;;;;;17.57;9.00;;;;;;;30.03;100.00;100849.69;5030530;28;20400;-75
2021/08/18 10:16:01;;;;;;;9.90;8.33;;;;;;;29.98;100.00;100844.13;5030839;28;20905;-78
2021/08/18 10:18:38;;;;;;;8.87;7.97;;;;;;;30.03;100.00;100851.56;5030445;28;20732;-77
2021/08/18 10:21:19;;;;;;;9.30;8.10;;;;;;;30.16;100.00;100848.72;5030761;28;20556;-77
2021/08/18 10:23:51;;;;;;;12.63;8.63;;;;;;;30.25;100.00;100850.06;5030873;28;20416;-76
2021/08/18 10:26:34;;;;;;;12.63;9.23;;;;;;;30.44;100.00;100847.28;5030163;28;20483;-76
2021/08/18 10:29:00;;;;;;;18.50;8.70;;;;;;;30.66;100.00;100841.13;5030360;28;20462;-76
2021/08/18 10:31:41;;;;;;;14.87;8.73;;;;;;;30.69;100.00;100839.03;5030052;28;20408;-76
2021/08/18 10:34:08;;;;;;;9.90;8.47;;;;;;;30.66;100.00;100843.84;5029553;28;20413;-75
2021/08/18 10:36:42;;;;;;;17.20;9.40;;;;;;;30.63;100.00;100846.19;5030595;28;20436;-75
2021/08/18 10:39:26;;;;;;;12.73;8.20;;;;;;;30.71;100.00;100840.44;5030269;28;20789;-78
2021/08/18 10:42:15;;;;;;;10.90;8.93;;;;;;;30.63;100.00;100838.03;5029414;28;20456;-75
2021/08/18 10:44:52;;;;;;;11.10;8.83;;;;;;;30.70;100.00;100843.41;5030139;28;20408;-76
2021/08/18 10:47:20;;;;;;;13.77;9.53;;;;;;;30.84;100.00;100842.94;5029833;28;20400;-77
2021/08/18 10:49:57;;;;;;;13.33;10.17;;;;;;;31.04;100.00;100849.94;5030507;28;20415;-76
2021/08/18 10:52:29;;;;;;;14.37;8.80;;;;;;;31.31;100.00;100842.19;5029958;28;20401;-76
2021/08/18 10:55:03;;;;;;;11.67;9.27;;;;;;;31.02;100.00;100838.47;5030266;28;20419;-76
2021/08/18 10:58:08;;;;;;;9.87;8.87;;;;;;;31.16;100.00;100829.03;5030323;28;20487;-76
2021/08/18 11:00:40;;;;;;;19.13;9.50;;;;;;;31.67;100.00;100831.03;5027989;28;20431;-76
2021/08/18 11:03:27;;;;;;;12.57;9.70;;;;;;;31.67;100.00;100825.59;5029876;28;20459;-77
2021/08/18 11:05:53;;;;;;;9.53;8.53;;;;;;;31.80;100.00;100821.78;5029843;28;20404;-77